Time;durP1;ratioP1;P1;durP2;ratioP2;P2;SDS_P1;SDS_P2;PMS_P1;PMS_P2;Temp;Humidity;BMP_temperature;BMP_pressure;BME280_temperature;BME280_humidity;BME280_pressure;Samples;Min_cycle;Max_cycle;Signal;HPM_P1;HPM_P2
2022/03/03 00:01:21;;;;;;;1.50;1.30;;;4.40;78.30;;;;;;5028423;28;20844;-70
2022/03/03 00:03:48;;;;;;;1.70;1.60;;;4.40;78.30;;;;;;5029186;28;20483;-70
2022/03/03 00:06:14;;;;;;;1.60;1.50;;;4.30;78.50;;;;;;5028273;28;20467;-70
2022/03/03 00:08:41;;;;;;;1.60;1.50;;;4.30;78.60;;;;;;5026936;28;20466;-70
2022/03/03 00:11:09;;;;;;;1.57;1.40;;;4.20;78.50;;;;;;5028324;28;20490;-70
2022/03/03 00:13:36;;;;;;;1.50;1.30;;;4.20;78.60;;;;;;5026989;28;20496;-70
2022/03/03 00:16:04;;;;;;;1.57;1.40;;;4.20;78.60;;;;;;5022045;28;20545;-69
2022/03/03 00:18:30;;;;;;;1.50;1.30;;;4.20;78.50;;;;;;5041610;28;20505;-71
2022/03/03 00:20:57;;;;;;;1.60;1.50;;;4.20;78.50;;;;;;5029114;28;20974;-70
2022/03/03 00:23:24;;;;;;;1.50;1.40;;;4.20;78.50;;;;;;5029475;28;20471;-71
2022/03/03 00:25:50;;;;;;;1.53;1.40;;;4.20;78.70;;;;;;5032111;28;20474;-70
2022/03/03 00:28:19;;;;;;;1.57;1.40;;;4.20;78.80;;;;;;5030930;28;20950;-70
2022/03/03 00:30:46;;;;;;;1.60;1.40;;;4.10;78.70;;;;;;5028495;28;20995;-70
2022/03/03 00:33:12;;;;;;;1.60;1.43;;;4.10;79.00;;;;;;5028894;28;21029;-71
2022/03/03 00:35:39;;;;;;;1.60;1.30;;;4.10;78.80;;;;;;5031092;28;20470;-70
2022/03/03 00:38:06;;;;;;;1.60;1.40;;;4.00;78.90;;;;;;5030446;28;20459;-71
2022/03/03 00:40:33;;;;;;;1.60;1.40;;;3.90;79.20;;;;;;5029720;28;20855;-70
2022/03/03 00:43:00;;;;;;;1.50;1.30;;;3.90;80.00;;;;;;5035107;28;20490;-69
2022/03/03 00:45:28;;;;;;;1.50;1.40;;;3.80;80.20;;;;;;5030613;28;20474;-70
2022/03/03 00:47:55;;;;;;;1.60;1.50;;;3.80;80.30;;;;;;5030552;28;20463;-70
2022/03/03 00:50:21;;;;;;;1.60;1.50;;;3.70;80.80;;;;;;5028273;28;20467;-70
2022/03/03 00:52:48;;;;;;;1.53;1.40;;;3.70;80.90;;;;;;5028384;28;20483;-70
2022/03/03 00:55:15;;;;;;;5.03;4.70;;;3.60;81.30;;;;;;5030377;28;20475;-70
2022/03/03 00:57:42;;;;;;;1.60;1.43;;;3.60;81.30;;;;;;5030186;28;20552;-70
2022/03/03 01:00:10;;;;;;;1.57;1.40;;;3.50;81.40;;;;;;5028641;28;20836;-70
2022/03/03 01:02:39;;;;;;;1.53;1.40;;;3.50;81.60;;;;;;5029182;28;20491;-70
2022/03/03 01:05:06;;;;;;;1.60;1.50;;;3.50;81.70;;;;;;5030680;28;20975;-70
2022/03/03 01:07:33;;;;;;;1.60;1.43;;;3.50;81.40;;;;;;5029907;28;20547;-70
2022/03/03 01:10:00;;;;;;;1.57;1.40;;;3.50;81.40;;;;;;5029409;28;20952;-70
2022/03/03 01:12:27;;;;;;;1.60;1.50;;;3.50;81.10;;;;;;5029680;28;20491;-69
2022/03/03 01:14:54;;;;;;;1.57;1.40;;;3.50;81.00;;;;;;5029555;28;20467;-70
2022/03/03 01:17:21;;;;;;;2.07;1.97;;;3.40;80.90;;;;;;5029127;28;20966;-70
2022/03/03 01:19:50;;;;;;;1.60;1.40;;;3.40;81.00;;;;;;5028582;28;20531;-70
2022/03/03 01:22:17;;;;;;;1.70;1.60;;;3.40;81.50;;;;;;5029255;28;20863;-70
2022/03/03 01:24:45;;;;;;;1.60;1.50;;;3.30;81.60;;;;;;5028914;28;20466;-70
2022/03/03 01:27:12;;;;;;;1.53;1.40;;;3.30;81.40;;;;;;5029800;28;20463;-70
2022/03/03 01:29:38;;;;;;;1.60;1.50;;;3.30;81.60;;;;;;5029635;28;20641;-70
2022/03/03 01:32:07;;;;;;;1.60;1.50;;;3.30;81.50;;;;;;5027858;28;20902;-70
2022/03/03 01:34:35;;;;;;;1.60;1.50;;;3.20;82.00;;;;;;5029996;28;20466;-70
2022/03/03 01:37:04;;;;;;;1.57;1.40;;;3.20;82.00;;;;;;5029945;28;20909;-70
2022/03/03 01:39:31;;;;;;;1.53;1.40;;;3.20;82.30;;;;;;5023676;28;20459;-70
2022/03/03 01:41:58;;;;;;;1.57;1.40;;;3.20;82.20;;;;;;5028490;28;20490;-70
2022/03/03 01:44:25;;;;;;;1.60;1.50;;;3.20;82.30;;;;;;5028335;28;20459;-70
2022/03/03 01:46:54;;;;;;;1.60;1.50;;;3.20;82.40;;;;;;5029133;28;20475;-70
2022/03/03 01:49:21;;;;;;;1.50;1.40;;;3.20;82.40;;;;;;5028650;28;20459;-70
2022/03/03 01:51:48;;;;;;;1.53;1.40;;;3.20;82.30;;;;;;5027384;28;20495;-70
2022/03/03 01:54:16;;;;;;;1.70;1.60;;;3.20;82.30;;;;;;5029712;28;20779;-70
2022/03/03 01:56:44;;;;;;;1.57;1.47;;;3.20;82.40;;;;;;5029015;28;20469;-70
2022/03/03 01:59:11;;;;;;;1.57;1.40;;;3.20;82.70;;;;;;5028388;28;20466;-70
2022/03/03 02:01:38;;;;;;;1.57;1.47;;;3.20;82.60;;;;;;5027994;28;20455;-70
2022/03/03 02:04:07;;;;;;;1.57;1.40;;;3.20;82.40;;;;;;5028421;28;20474;-71
2022/03/03 02:06:34;;;;;;;1.57;1.40;;;3.10;82.70;;;;;;5029286;28;20467;-70
2022/03/03 02:09:01;;;;;;;1.57;1.40;;;3.10;82.70;;;;;;5029288;28;20459;-70
2022/03/03 02:11:31;;;;;;;1.60;1.47;;;3.10;82.70;;;;;;5027479;28;20491;-70
2022/03/03 02:13:57;;;;;;;1.60;1.40;;;3.10;83.00;;;;;;5028606;28;20509;-69
2022/03/03 02:16:25;;;;;;;1.60;1.50;;;3.10;83.00;;;;;;5029286;28;20458;-70
2022/03/03 02:18:51;;;;;;;1.60;1.50;;;3.00;83.30;;;;;;5028122;28;20494;-70
2022/03/03 02:21:20;;;;;;;1.80;1.70;;;3.00;83.60;;;;;;5026545;28;20460;-70
2022/03/03 02:23:47;;;;;;;2.53;2.33;;;3.00;83.70;;;;;;5026234;28;21005;-70
2022/03/03 02:26:18;;;;;;;1.53;1.40;;;3.00;83.80;;;;;;5029009;28;20460;-70
2022/03/03 02:28:46;;;;;;;1.53;1.40;;;3.00;83.40;;;;;;5027536;28;20459;-70
2022/03/03 02:31:13;;;;;;;1.57;1.40;;;3.00;83.50;;;;;;5025008;28;20493;-70
2022/03/03 02:33:39;;;;;;;1.57;1.40;;;3.00;83.50;;;;;;5025246;28;20712;-70
2022/03/03 02:36:22;;;;;;;1.50;1.40;;;2.90;83.70;;;;;;5028099;28;20499;-70
2022/03/03 02:38:50;;;;;;;1.57;1.40;;;2.90;83.70;;;;;;5026419;28;20470;-70
2022/03/03 02:41:17;;;;;;;1.70;1.60;;;2.80;83.80;;;;;;5008799;28;20471;-70
2022/03/03 02:43:44;;;;;;;1.60;1.50;;;2.80;83.80;;;;;;5021649;28;20483;-70
2022/03/03 02:46:11;;;;;;;1.60;1.50;;;2.80;83.80;;;;;;5025916;28;20471;-70
2022/03/03 02:48:38;;;;;;;1.60;1.50;;;2.70;83.80;;;;;;5027673;28;20482;-70
2022/03/03 02:51:05;;;;;;;1.60;1.50;;;2.60;84.30;;;;;;5025494;28;20463;-70
2022/03/03 02:53:34;;;;;;;1.60;1.50;;;2.60;84.40;;;;;;5028197;28;20487;-70
2022/03/03 02:56:01;;;;;;;1.60;1.50;;;2.60;84.30;;;;;;5026941;28;20504;-69
2022/03/03 02:58:28;;;;;;;1.60;1.40;;;2.50;84.50;;;;;;5027741;28;20467;-70
2022/03/03 03:00:55;;;;;;;1.57;1.40;;;2.50;85.20;;;;;;5025245;28;20467;-70
2022/03/03 03:03:22;;;;;;;1.53;1.40;;;2.50;85.80;;;;;;5025935;28;20486;-70
2022/03/03 03:05:49;;;;;;;1.60;1.50;;;2.50;85.80;;;;;;5028261;28;20467;-70
2022/03/03 03:08:16;;;;;;;1.60;1.50;;;2.50;85.50;;;;;;5027307;28;20853;-71
2022/03/03 03:10:44;;;;;;;1.60;1.50;;;2.50;85.30;;;;;;5026746;28;21397;-70
2022/03/03 03:13:12;;;;;;;1.60;1.50;;;2.50;85.10;;;;;;5027649;28;20499;-70
2022/03/03 03:15:40;;;;;;;1.57;1.40;;;2.50;85.30;;;;;;5027338;28;20862;-71
2022/03/03 03:18:11;;;;;;;1.60;1.50;;;2.50;85.60;;;;;;5027395;28;20463;-70
2022/03/03 03:20:38;;;;;;;1.60;1.50;;;2.50;85.80;;;;;;5025552;28;20467;-70
2022/03/03 03:23:05;;;;;;;1.60;1.50;;;2.40;86.10;;;;;;5026602;28;20478;-70
2022/03/03 03:25:32;;;;;;;1.70;1.60;;;2.40;86.40;;;;;;5028391;28;20493;-70
2022/03/03 03:28:00;;;;;;;1.63;1.53;;;2.40;86.30;;;;;;5027199;28;20463;-70
2022/03/03 03:30:27;;;;;;;1.70;1.60;;;2.40;86.10;;;;;;5020606;28;20836;-70
2022/03/03 03:32:54;;;;;;;1.60;1.50;;;2.40;86.00;;;;;;5032202;28;21044;-70
2022/03/03 03:35:21;;;;;;;1.70;1.60;;;2.30;85.90;;;;;;5027489;28;20466;-70
2022/03/03 03:37:48;;;;;;;1.60;1.50;;;2.30;86.60;;;;;;5027322;28;20466;-70
2022/03/03 03:40:14;;;;;;;1.60;1.50;;;2.30;86.40;;;;;;5026562;28;20845;-69
2022/03/03 03:42:41;;;;;;;1.70;1.60;;;2.30;86.00;;;;;;5026383;28;20870;-70
2022/03/03 03:45:10;;;;;;;1.60;1.50;;;2.20;87.00;;;;;;5026342;28;20478;-70
2022/03/03 03:47:38;;;;;;;1.60;1.50;;;2.20;87.70;;;;;;5026549;28;20542;-70
2022/03/03 03:50:05;;;;;;;1.80;1.70;;;2.20;87.70;;;;;;5022190;28;20467;-70
2022/03/03 03:52:32;;;;;;;1.60;1.50;;;2.10;87.60;;;;;;5024457;28;21083;-69
2022/03/03 03:54:59;;;;;;;1.60;1.50;;;2.10;88.00;;;;;;5025790;28;20467;-70
2022/03/03 03:57:26;;;;;;;1.70;1.60;;;2.00;88.50;;;;;;5026667;28;20976;-69
2022/03/03 03:59:53;;;;;;;1.60;1.50;;;2.00;89.30;;;;;;5026309;28;20471;-70
2022/03/03 04:02:21;;;;;;;1.70;1.60;;;2.00;88.60;;;;;;5025535;28;20486;-69
2022/03/03 04:04:48;;;;;;;1.60;1.50;;;2.00;88.70;;;;;;5027292;28;20474;-70
2022/03/03 04:07:15;;;;;;;1.50;1.40;;;1.90;88.90;;;;;;5027177;28;20467;-69
2022/03/03 04:09:42;;;;;;;1.60;1.50;;;1.90;89.80;;;;;;5025106;28;20463;-69
2022/03/03 04:14:38;;;;;;;1.70;1.60;;;1.90;89.40;;;;;;4984438;28;20491;-74
2022/03/03 04:17:06;;;;;;;1.70;1.60;;;1.90;89.50;;;;;;4979302;28;20483;-71
2022/03/03 04:19:34;;;;;;;1.60;1.50;;;1.90;89.90;;;;;;4989169;28;20456;-71
2022/03/03 04:22:01;;;;;;;1.60;1.50;;;1.90;90.00;;;;;;4979625;28;20454;-71
2022/03/03 04:24:28;;;;;;;1.60;1.50;;;1.90;90.10;;;;;;4978800;28;20515;-70
2022/03/03 04:26:56;;;;;;;1.60;1.50;;;1.90;89.70;;;;;;4983657;28;20465;-74
2022/03/03 04:29:23;;;;;;;1.70;1.60;;;1.80;90.10;;;;;;4975847;28;20831;-70
2022/03/03 04:31:51;;;;;;;1.60;1.50;;;1.80;88.90;;;;;;4978992;28;20476;-72
2022/03/03 04:34:19;;;;;;;1.60;1.50;;;1.70;88.80;;;;;;4981551;28;20509;-74
2022/03/03 04:36:47;;;;;;;1.60;1.50;;;1.70;89.90;;;;;;4979720;28;20848;-75
2022/03/03 04:39:14;;;;;;;1.60;1.50;;;1.60;90.60;;;;;;4991052;28;20483;-71
2022/03/03 04:41:42;;;;;;;1.60;1.50;;;1.50;90.70;;;;;;4991256;28;20830;-74
2022/03/03 04:44:08;;;;;;;1.60;1.50;;;1.50;90.70;;;;;;4985416;28;20482;-71
2022/03/03 04:46:35;;;;;;;1.60;1.50;;;1.50;90.70;;;;;;4982871;28;20461;-75
2022/03/03 04:49:02;;;;;;;1.70;1.60;;;1.40;90.60;;;;;;4976821;28;20545;-72
2022/03/03 04:51:30;;;;;;;1.70;1.60;;;1.40;91.40;;;;;;4994925;28;20485;-73
2022/03/03 04:53:58;;;;;;;1.70;1.60;;;1.30;91.80;;;;;;4993490;28;20501;-74
2022/03/03 04:56:25;;;;;;;1.60;1.50;;;1.30;91.40;;;;;;4990565;28;20472;-74
2022/03/03 04:58:51;;;;;;;1.70;1.60;;;1.30;91.40;;;;;;4978165;28;20717;-73
2022/03/03 05:01:18;;;;;;;1.60;1.50;;;1.30;91.50;;;;;;4977616;28;20461;-73
2022/03/03 05:03:45;;;;;;;1.60;1.50;;;1.30;91.30;;;;;;4976105;28;20485;-72
2022/03/03 05:06:12;;;;;;;1.63;1.53;;;1.20;91.50;;;;;;4985454;28;20465;-73
2022/03/03 05:08:39;;;;;;;1.70;1.60;;;1.20;91.70;;;;;;4974950;28;20819;-73
2022/03/03 05:11:07;;;;;;;1.70;1.60;;;1.20;91.20;;;;;;4968461;28;20873;-75
2022/03/03 05:13:34;;;;;;;1.70;1.60;;;1.20;91.50;;;;;;5003356;28;20504;-72
2022/03/03 05:16:00;;;;;;;1.80;1.70;;;1.20;91.10;;;;;;4973353;28;20517;-76
2022/03/03 05:18:27;;;;;;;1.63;1.53;;;1.20;91.10;;;;;;4990851;28;20464;-73
2022/03/03 05:20:54;;;;;;;1.70;1.60;;;1.30;91.30;;;;;;4983052;28;20488;-72
2022/03/03 05:23:21;;;;;;;1.60;1.50;;;1.30;91.00;;;;;;4984232;28;20482;-71
2022/03/03 05:25:47;;;;;;;1.70;1.60;;;1.30;91.00;;;;;;4978706;28;20469;-71
2022/03/03 05:28:16;;;;;;;1.70;1.60;;;1.30;90.60;;;;;;4976744;28;20468;-70
2022/03/03 05:30:43;;;;;;;1.70;1.60;;;1.30;91.00;;;;;;4987237;28;21088;-73
2022/03/03 05:33:10;;;;;;;1.60;1.50;;;1.30;90.60;;;;;;4979387;28;20564;-72
2022/03/03 05:35:37;;;;;;;2.77;2.57;;;1.40;90.70;;;;;;4980170;28;20476;-72
2022/03/03 05:38:04;;;;;;;1.77;1.67;;;1.40;90.70;;;;;;4984305;28;20496;-73
2022/03/03 05:40:31;;;;;;;1.70;1.60;;;1.40;91.40;;;;;;4977174;28;20498;-73
2022/03/03 05:42:58;;;;;;;2.00;1.90;;;1.40;91.50;;;;;;4980993;28;20489;-72
2022/03/03 05:45:27;;;;;;;1.70;1.60;;;1.50;91.20;;;;;;4977312;28;20541;-76
2022/03/03 05:47:54;;;;;;;1.70;1.60;;;1.50;91.60;;;;;;4979610;28;20612;-74
2022/03/03 05:50:20;;;;;;;1.60;1.50;;;1.50;91.80;;;;;;4986985;28;20484;-74
2022/03/03 05:52:47;;;;;;;1.70;1.60;;;1.50;92.00;;;;;;4989240;28;20503;-71
2022/03/03 05:55:14;;;;;;;1.70;1.60;;;1.50;92.10;;;;;;4981914;28;20490;-73
2022/03/03 05:57:45;;;;;;;1.80;1.70;;;1.50;91.40;;;;;;4974069;28;20469;-73
2022/03/03 06:00:14;;;;;;;1.60;1.50;;;1.50;91.30;;;;;;4978652;28;20529;-73
2022/03/03 06:02:49;;;;;;;1.70;1.60;;;1.50;91.70;;;;;;4996468;28;20486;-74
2022/03/03 06:05:19;;;;;;;1.70;1.60;;;1.50;91.30;;;;;;4977795;28;20491;-75
2022/03/03 06:07:50;;;;;;;1.90;1.80;;;1.50;90.80;;;;;;4977713;28;20491;-73
2022/03/03 06:10:21;;;;;;;1.67;1.57;;;1.50;90.50;;;;;;4973690;28;20458;-74
2022/03/03 06:12:51;;;;;;;1.73;1.63;;;1.40;90.10;;;;;;4976034;28;20497;-74
2022/03/03 06:15:22;;;;;;;1.70;1.60;;;1.40;90.50;;;;;;4981225;28;20983;-73
2022/03/03 06:17:50;;;;;;;5.67;5.20;;;1.30;91.00;;;;;;5000039;28;20484;-72
2022/03/03 06:20:18;;;;;;;1.60;1.50;;;1.30;90.50;;;;;;4987160;28;20466;-71
2022/03/03 06:22:45;;;;;;;1.70;1.60;;;1.30;90.50;;;;;;4983829;28;20482;-72
2022/03/03 06:25:12;;;;;;;1.70;1.60;;;1.20;91.10;;;;;;4972212;28;20469;-72
2022/03/03 06:27:39;;;;;;;1.60;1.50;;;1.20;91.10;;;;;;4975007;28;20465;-73
2022/03/03 06:30:07;;;;;;;1.60;1.50;;;1.10;91.00;;;;;;4978675;28;20477;-72
2022/03/03 06:32:35;;;;;;;1.60;1.50;;;1.10;90.90;;;;;;4983127;28;20489;-70
2022/03/03 06:35:03;;;;;;;1.70;1.60;;;1.10;91.00;;;;;;4978610;28;20466;-70
2022/03/03 06:37:30;;;;;;;1.80;1.70;;;1.10;90.80;;;;;;4975634;28;21000;-70
2022/03/03 06:39:57;;;;;;;1.70;1.60;;;1.10;90.60;;;;;;4979154;28;20745;-69
2022/03/03 06:42:24;;;;;;;1.70;1.60;;;1.00;90.90;;;;;;4978228;28;20923;-72
2022/03/03 06:44:52;;;;;;;1.93;1.83;;;1.00;91.50;;;;;;4981614;28;20481;-72
2022/03/03 06:47:19;;;;;;;1.70;1.60;;;1.00;91.50;;;;;;4975811;28;20883;-71
2022/03/03 06:49:47;;;;;;;1.70;1.60;;;1.00;91.90;;;;;;4981392;28;20473;-71
2022/03/03 06:52:16;;;;;;;1.70;1.60;;;1.00;91.70;;;;;;4985422;28;20466;-71
2022/03/03 06:54:45;;;;;;;1.80;1.70;;;1.00;92.20;;;;;;4971660;28;20470;-70
2022/03/03 06:57:12;;;;;;;1.70;1.60;;;1.00;92.20;;;;;;4980270;28;21127;-70
2022/03/03 06:59:40;;;;;;;1.70;1.60;;;1.00;92.40;;;;;;4966095;28;20485;-70
2022/03/03 07:02:07;;;;;;;1.80;1.70;;;1.00;92.20;;;;;;4974939;28;20473;-70
2022/03/03 07:04:34;;;;;;;1.73;1.63;;;1.10;92.60;;;;;;4972588;28;20826;-70
2022/03/03 07:07:01;;;;;;;1.70;1.60;;;1.10;92.10;;;;;;4973289;28;20466;-71
2022/03/03 07:09:30;;;;;;;1.70;1.60;;;1.10;92.10;;;;;;4980304;28;20488;-71
2022/03/03 07:11:59;;;;;;;1.60;1.50;;;1.20;92.90;;;;;;4975205;28;20565;-70
2022/03/03 07:14:26;;;;;;;1.70;1.60;;;1.30;93.10;;;;;;4969195;28;20494;-70
2022/03/03 07:17:00;;;;;;;1.70;1.60;;;1.40;93.40;;;;;;4973305;28;20465;-70
2022/03/03 07:19:44;;;;;;;1.53;1.40;;;1.60;93.20;;;;;;4989687;28;20551;-71
2022/03/03 07:22:18;;;;;;;1.87;1.77;;;1.80;92.40;;;;;;4980258;28;20469;-71
2022/03/03 07:24:48;;;;;;;1.70;1.60;;;2.00;91.80;;;;;;4972930;28;21008;-71
2022/03/03 07:27:20;;;;;;;1.70;1.60;;;2.30;91.90;;;;;;4983747;28;20472;-71
2022/03/03 07:29:51;;;;;;;1.80;1.70;;;2.50;91.10;;;;;;4983431;28;20465;-71
2022/03/03 07:32:19;;;;;;;1.60;1.50;;;2.70;90.30;;;;;;4993146;28;20539;-71
2022/03/03 07:34:56;;;;;;;1.60;1.47;;;2.90;88.80;;;;;;4979974;28;20485;-69
2022/03/03 07:37:31;;;;;;;1.70;1.60;;;3.10;88.30;;;;;;4976545;28;20986;-70
2022/03/03 07:40:04;;;;;;;1.70;1.60;;;3.20;87.70;;;;;;4969319;28;20474;-70
2022/03/03 07:42:31;;;;;;;1.73;1.63;;;3.40;87.10;;;;;;4974998;28;20486;-70
2022/03/03 07:44:58;;;;;;;1.60;1.50;;;3.60;86.70;;;;;;4981690;28;20962;-70
2022/03/03 07:47:27;;;;;;;1.60;1.47;;;3.80;85.80;;;;;;4982001;28;20468;-71
2022/03/03 07:49:56;;;;;;;1.70;1.60;;;4.00;85.10;;;;;;4978584;28;20496;-71
2022/03/03 07:52:24;;;;;;;1.70;1.60;;;4.20;84.60;;;;;;4991130;28;20465;-71
2022/03/03 07:54:51;;;;;;;1.73;1.63;;;4.40;83.50;;;;;;4968859;28;20743;-71
2022/03/03 07:57:23;;;;;;;1.57;1.40;;;4.60;83.30;;;;;;4973713;28;20466;-71
2022/03/03 07:59:58;;;;;;;1.60;1.50;;;4.80;83.20;;;;;;4969176;28;20573;-71
2022/03/03 08:02:27;;;;;;;1.60;1.40;;;5.10;82.80;;;;;;4976411;28;21016;-72
2022/03/03 08:04:54;;;;;;;1.60;1.40;;;5.20;82.20;;;;;;4972755;28;20470;-71
2022/03/03 08:07:21;;;;;;;1.60;1.47;;;5.40;81.70;;;;;;4976868;28;20466;-71
2022/03/03 08:09:49;;;;;;;1.53;1.30;;;5.60;81.40;;;;;;4979665;28;20462;-71
2022/03/03 08:12:20;;;;;;;1.50;1.27;;;5.90;80.40;;;;;;4984935;28;20488;-72
2022/03/03 08:14:47;;;;;;;1.60;1.30;;;6.00;79.00;;;;;;4984681;28;20490;-72
2022/03/03 08:17:15;;;;;;;1.50;1.30;;;6.10;79.00;;;;;;4997188;28;20897;-72
2022/03/03 08:19:44;;;;;;;1.50;1.30;;;6.20;79.00;;;;;;4999321;28;20520;-72
2022/03/03 08:22:13;;;;;;;1.50;1.30;;;6.30;77.70;;;;;;5000940;28;20488;-71
2022/03/03 08:24:43;;;;;;;1.60;1.40;;;6.50;77.80;;;;;;4982082;28;20476;-72
2022/03/03 08:27:11;;;;;;;1.50;1.30;;;6.60;76.90;;;;;;4973842;28;20466;-71
2022/03/03 08:29:40;;;;;;;1.50;1.30;;;6.80;76.60;;;;;;4978821;28;20456;-72
2022/03/03 08:32:11;;;;;;;1.50;1.30;;;6.90;76.00;;;;;;4982268;28;20472;-71
2022/03/03 08:34:48;;;;;;;1.60;1.47;;;7.00;75.50;;;;;;4972983;28;20921;-71
2022/03/03 08:37:19;;;;;;;1.50;1.20;;;7.10;75.80;;;;;;4978687;28;20466;-71
2022/03/03 08:39:47;;;;;;;1.53;1.30;;;7.20;74.70;;;;;;4982493;28;20512;-71
2022/03/03 08:42:16;;;;;;;1.50;1.30;;;7.30;75.00;;;;;;4984304;28;20836;-72
2022/03/03 08:44:44;;;;;;;1.57;1.20;;;7.40;74.80;;;;;;4985274;28;20473;-72
2022/03/03 08:47:15;;;;;;;1.60;1.40;;;7.60;74.70;;;;;;4979186;28;20841;-72
2022/03/03 08:49:44;;;;;;;3.00;2.80;;;7.80;74.20;;;;;;4984612;28;20461;-72
2022/03/03 08:52:11;;;;;;;2.20;2.00;;;7.90;72.80;;;;;;4994003;28;20469;-71
2022/03/03 08:54:38;;;;;;;1.57;1.37;;;8.00;72.80;;;;;;4992980;28;20851;-71
2022/03/03 08:57:05;;;;;;;1.50;1.20;;;8.00;72.60;;;;;;4986002;28;20473;-72
2022/03/03 08:59:33;;;;;;;1.50;1.10;;;8.10;72.30;;;;;;4986655;28;20504;-72
2022/03/03 09:02:01;;;;;;;1.50;1.20;;;8.10;71.80;;;;;;4988612;28;20461;-72
2022/03/03 09:04:28;;;;;;;1.50;1.13;;;8.10;71.90;;;;;;4986264;28;20539;-72
2022/03/03 09:06:55;;;;;;;1.50;1.20;;;8.20;72.00;;;;;;4986158;28;20456;-72
2022/03/03 09:09:22;;;;;;;1.50;1.20;;;8.30;72.10;;;;;;4986856;28;20825;-72
2022/03/03 09:11:48;;;;;;;1.50;1.20;;;8.40;71.60;;;;;;4986872;28;20465;-72
2022/03/03 09:14:15;;;;;;;1.60;1.50;;;8.50;71.90;;;;;;4987851;28;20883;-75
2022/03/03 09:16:42;;;;;;;1.50;1.20;;;8.60;72.20;;;;;;4988360;28;20469;-77
2022/03/03 09:19:10;;;;;;;1.50;1.10;;;8.80;72.00;;;;;;4989074;28;20476;-75
2022/03/03 09:21:37;;;;;;;1.87;1.67;;;8.90;71.90;;;;;;4998698;28;20485;-72
2022/03/03 09:24:04;;;;;;;1.50;1.10;;;8.90;71.30;;;;;;4997109;28;21001;-72
2022/03/03 09:26:31;;;;;;;3.40;3.20;;;9.00;71.40;;;;;;4991424;28;20469;-72
2022/03/03 09:28:58;;;;;;;1.50;1.20;;;9.10;71.10;;;;;;4972903;28;20572;-73
2022/03/03 09:31:25;;;;;;;1.50;1.10;;;9.20;70.40;;;;;;4973073;28;20521;-73
2022/03/03 09:33:51;;;;;;;1.50;1.10;;;9.20;69.80;;;;;;4985805;28;20493;-73
2022/03/03 09:36:20;;;;;;;1.50;1.20;;;9.30;69.90;;;;;;4985699;28;20457;-71
2022/03/03 09:38:47;;;;;;;1.50;1.10;;;9.40;69.70;;;;;;4972274;28;20896;-71
2022/03/03 09:41:14;;;;;;;1.50;1.10;;;9.70;69.40;;;;;;4976205;28;20472;-70
2022/03/03 09:43:41;;;;;;;1.50;1.10;;;9.90;68.50;;;;;;4971590;28;20580;-71
2022/03/03 09:46:07;;;;;;;1.50;1.20;;;10.00;68.00;;;;;;4973539;28;20571;-70
2022/03/03 09:48:35;;;;;;;1.50;1.30;;;10.10;67.70;;;;;;4977174;28;20465;-71
2022/03/03 09:51:02;;;;;;;1.50;1.20;;;10.20;67.60;;;;;;4989734;28;20498;-71
2022/03/03 09:53:32;;;;;;;1.50;1.40;;;10.40;67.90;;;;;;4977671;28;20905;-71
2022/03/03 09:55:59;;;;;;;1.50;1.10;;;10.60;67.20;;;;;;4977820;28;20468;-71
2022/03/03 09:58:26;;;;;;;1.50;1.10;;;10.70;66.40;;;;;;4971645;28;20477;-71
2022/03/03 10:00:53;;;;;;;1.50;1.30;;;10.90;66.70;;;;;;4970875;28;20491;-70
2022/03/03 10:03:20;;;;;;;1.90;1.80;;;10.90;66.30;;;;;;5000946;28;20515;-70
2022/03/03 10:05:49;;;;;;;1.50;1.00;;;11.00;66.00;;;;;;4988154;28;20477;-71
2022/03/03 10:08:18;;;;;;;1.97;1.87;;;11.00;65.00;;;;;;4964879;28;20489;-71
2022/03/03 10:10:48;;;;;;;1.50;1.10;;;11.00;65.20;;;;;;4969112;28;20477;-70
2022/03/03 10:13:16;;;;;;;1.50;1.00;;;11.10;65.50;;;;;;5002121;23;20489;-71
2022/03/03 10:15:44;;;;;;;4.03;3.57;;;11.20;65.70;;;;;;5009575;28;20452;-73
2022/03/03 10:18:13;;;;;;;1.77;1.67;;;11.50;65.40;;;;;;5009033;28;20460;-70
2022/03/03 10:20:49;;;;;;;1.50;1.10;;;11.70;64.50;;;;;;5008066;28;20463;-72
2022/03/03 10:23:18;;;;;;;1.50;1.10;;;11.70;64.10;;;;;;5009469;28;20459;-72
2022/03/03 10:25:47;;;;;;;1.50;1.00;;;11.80;64.20;;;;;;5008579;28;20472;-73
2022/03/03 10:28:16;;;;;;;1.50;1.20;;;11.90;64.10;;;;;;5009329;28;20463;-71
2022/03/03 10:31:05;;;;;;;2.10;1.97;;;12.10;63.90;;;;;;5003516;28;20555;-72
2022/03/03 10:33:34;;;;;;;1.50;1.20;;;12.30;62.90;;;;;;5005316;28;20571;-71
2022/03/03 10:36:19;;;;;;;1.50;1.10;;;12.40;62.20;;;;;;5009436;28;20894;-71
2022/03/03 10:38:49;;;;;;;1.50;1.10;;;12.60;62.90;;;;;;5008727;28;20464;-70
2022/03/03 10:41:30;;;;;;;1.50;1.00;;;12.70;62.60;;;;;;5008073;28;20456;-70
2022/03/03 10:44:01;;;;;;;1.50;1.00;;;12.70;61.10;;;;;;5009025;28;20480;-73
2022/03/03 10:46:28;;;;;;;1.47;1.10;;;12.70;61.30;;;;;;5009399;28;20514;-71
2022/03/03 10:48:55;;;;;;;1.90;1.63;;;12.50;60.70;;;;;;5008702;28;20460;-72
2022/03/03 10:51:24;;;;;;;1.97;1.47;;;12.50;61.60;;;;;;4998002;28;20471;-72
2022/03/03 10:53:51;;;;;;;1.43;0.90;;;12.60;61.50;;;;;;5008839;28;21026;-71
2022/03/03 10:56:19;;;;;;;1.50;1.00;;;12.60;61.30;;;;;;5008781;28;20466;-72
2022/03/03 10:58:53;;;;;;;1.50;1.07;;;12.60;61.40;;;;;;5009227;28;20626;-70
2022/03/03 11:01:22;;;;;;;1.50;1.10;;;12.80;62.50;;;;;;5000228;28;20468;-70
2022/03/03 11:03:53;;;;;;;1.47;1.00;;;13.00;61.40;;;;;;5002964;28;20484;-71
2022/03/03 11:06:22;;;;;;;1.53;1.23;;;12.90;60.70;;;;;;5007338;28;20547;-72
2022/03/03 11:08:51;;;;;;;1.50;1.00;;;12.90;61.20;;;;;;5008361;28;20464;-71
2022/03/03 11:11:18;;;;;;;1.50;1.03;;;13.00;62.40;;;;;;5006469;28;20467;-73
2022/03/03 11:13:47;;;;;;;1.60;1.30;;;13.10;60.60;;;;;;5008570;28;20503;-73
2022/03/03 11:16:16;;;;;;;6.10;2.10;;;13.20;60.20;;;;;;5008458;28;20608;-71
2022/03/03 11:18:43;;;;;;;1.50;1.00;;;13.20;61.00;;;;;;5007722;28;20542;-71
2022/03/03 11:21:12;;;;;;;1.50;1.20;;;13.30;60.10;;;;;;5005942;28;20468;-71
2022/03/03 11:23:42;;;;;;;1.50;1.00;;;13.20;60.10;;;;;;5008512;28;20519;-70
2022/03/03 11:26:11;;;;;;;1.50;1.00;;;13.20;59.60;;;;;;5008359;28;20739;-71
2022/03/03 11:28:39;;;;;;;1.50;1.10;;;13.20;59.90;;;;;;5008216;28;20742;-71
2022/03/03 11:31:30;;;;;;;1.50;0.97;;;13.30;60.30;;;;;;5005626;28;20775;-72
2022/03/03 11:34:22;;;;;;;1.47;1.00;;;13.40;58.60;;;;;;5007796;28;21066;-71
2022/03/03 11:36:49;;;;;;;3.30;3.10;;;13.50;59.20;;;;;;5009795;28;20505;-70
2022/03/03 11:39:37;;;;;;;1.60;1.40;;;13.50;58.60;;;;;;5010303;28;20462;-72
2022/03/03 11:42:32;;;;;;;1.40;1.00;;;13.60;59.50;;;;;;5010609;28;20464;-72
2022/03/03 11:45:01;;;;;;;1.53;1.13;;;13.80;59.40;;;;;;4968848;28;20492;-70
2022/03/03 11:47:31;;;;;;;1.50;1.30;;;14.00;58.90;;;;;;5010054;28;20475;-70
2022/03/03 11:50:16;;;;;;;1.50;1.00;;;14.00;58.70;;;;;;5008552;28;20558;-72
2022/03/03 11:52:44;;;;;;;1.50;1.00;;;14.30;58.70;;;;;;5008486;28;20988;-72
2022/03/03 11:55:34;;;;;;;2.23;2.03;;;14.60;59.80;;;;;;5011478;28;20496;-71
2022/03/03 11:58:05;;;;;;;1.50;1.00;;;14.80;58.60;;;;;;5009818;28;20456;-73
2022/03/03 12:00:34;;;;;;;1.47;1.00;;;15.10;58.40;;;;;;5008664;28;20492;-73
2022/03/03 12:03:04;;;;;;;4.33;2.30;;;15.20;57.00;;;;;;5008890;28;20462;-70
2022/03/03 12:05:43;;;;;;;1.50;1.00;;;15.20;56.30;;;;;;5009848;28;20452;-71
2022/03/03 12:08:31;;;;;;;1.47;1.10;;;15.10;55.40;;;;;;5000320;28;20554;-70
2022/03/03 12:11:00;;;;;;;1.50;1.03;;;14.80;55.30;;;;;;5009468;28;21039;-70
2022/03/03 12:13:28;;;;;;;1.43;0.97;;;14.60;54.70;;;;;;5010819;28;20500;-71
2022/03/03 12:16:15;;;;;;;1.47;1.00;;;14.60;57.00;;;;;;5010591;28;21029;-72
2022/03/03 12:18:43;;;;;;;1.50;1.00;;;14.70;56.40;;;;;;5011221;28;20459;-70
2022/03/03 12:21:31;;;;;;;1.50;1.10;;;14.80;56.60;;;;;;5007176;28;20476;-71
2022/03/03 12:24:33;;;;;;;1.73;1.63;;;14.90;57.40;;;;;;5007228;28;20563;-71
2022/03/03 12:27:18;;;;;;;1.50;1.00;;;15.00;56.60;;;;;;5008612;28;20458;-71
2022/03/03 12:29:57;;;;;;;1.47;1.00;;;15.10;56.40;;;;;;5004481;28;20551;-72
2022/03/03 12:32:42;;;;;;;1.50;1.00;;;15.30;56.50;;;;;;5008939;28;20955;-70
2022/03/03 12:35:21;;;;;;;1.50;1.10;;;15.40;55.40;;;;;;5009847;28;20484;-70
2022/03/03 12:37:49;;;;;;;2.47;1.60;;;15.30;57.20;;;;;;5009115;28;20459;-71
2022/03/03 12:40:18;;;;;;;1.50;1.00;;;15.50;56.10;;;;;;5009601;28;20482;-72
2022/03/03 12:42:47;;;;;;;1.50;1.10;;;15.40;53.80;;;;;;5010058;28;20460;-72
2022/03/03 12:45:15;;;;;;;1.50;1.00;;;15.10;54.70;;;;;;5010618;28;20578;-71
2022/03/03 12:47:44;;;;;;;1.40;0.93;;;15.10;54.80;;;;;;5004086;28;20472;-73
2022/03/03 12:50:14;;;;;;;1.70;1.57;;;15.20;55.40;;;;;;5007156;28;20471;-73
2022/03/03 12:52:43;;;;;;;1.50;1.10;;;15.30;54.20;;;;;;5008825;28;20471;-73
2022/03/03 12:55:11;;;;;;;1.50;1.00;;;15.40;55.10;;;;;;5008700;28;20599;-73
2022/03/03 12:57:40;;;;;;;1.60;1.40;;;15.30;53.30;;;;;;5009382;28;20460;-72
2022/03/03 13:00:10;;;;;;;2.97;1.57;;;15.30;53.40;;;;;;5008706;28;20463;-70
2022/03/03 13:02:51;;;;;;;1.50;0.93;;;15.40;53.70;;;;;;5007937;28;20696;-70
2022/03/03 13:05:37;;;;;;;1.50;1.00;;;15.70;53.40;;;;;;5010164;28;20487;-72
2022/03/03 13:08:06;;;;;;;1.40;0.90;;;15.70;51.40;;;;;;5009971;28;20472;-71